createdAt,value
2023-03-27T00:02:51.711Z,101208.78
2023-03-27T00:12:55.229Z,101230.03
2023-03-27T00:23:00.855Z,101247.03
2023-03-27T00:33:04.134Z,101265.13
2023-03-27T00:43:21.566Z,101255.72
2023-03-27T00:53:28.089Z,101265.97
2023-03-27T01:03:33.526Z,101289.72
2023-03-27T01:13:52.136Z,101296.88
2023-03-27T01:24:28.507Z,101304.53
2023-03-27T01:35:26.527Z,101312.09
2023-03-27T01:45:36.776Z,101321.81
2023-03-27T01:55:44.946Z,101331.47
2023-03-27T02:05:56.396Z,101342.91
2023-03-27T02:16:02.830Z,101365.06
2023-03-27T02:26:09.920Z,101379.22
2023-03-27T02:36:24.093Z,101382.56
2023-03-27T02:46:34.134Z,101396.88
2023-03-27T02:56:43.598Z,101395.41
2023-03-27T03:06:56.222Z,101408.88
2023-03-27T03:16:59.666Z,101415.94
2023-03-27T03:27:05.727Z,101428.94
2023-03-27T03:37:17.961Z,101453.38
2023-03-27T03:47:22.288Z,101471.09
2023-03-27T03:57:26.032Z,101480.47
2023-03-27T04:07:51.230Z,101498.19
2023-03-27T04:18:24.759Z,101501.13
2023-03-27T04:28:30.400Z,101526.00
2023-03-27T04:38:47.981Z,101546.97
2023-03-27T04:48:54.304Z,101560.06
2023-03-27T04:59:16.704Z,101573.09
2023-03-27T05:09:27.517Z,101582.94
2023-03-27T05:19:30.986Z,101602.03
2023-03-27T05:29:47.034Z,101617.22
2023-03-27T05:39:52.979Z,101617.50
2023-03-27T05:49:57.470Z,101640.38
2023-03-27T06:00:00.893Z,101648.03
2023-03-27T06:10:07.648Z,101675.09
2023-03-27T06:20:21.407Z,101703.75
2023-03-27T06:30:30.347Z,101691.53
2023-03-27T06:41:00.660Z,101708.44
2023-03-27T06:51:28.056Z,101708.13
2023-03-27T07:01:31.236Z,101726.22
2023-03-27T07:11:52.628Z,101749.16
2023-03-27T07:21:56.367Z,101744.50
2023-03-27T07:32:07.151Z,101767.25
2023-03-27T07:42:19.653Z,101772.41
2023-03-27T07:52:40.530Z,101781.44
2023-03-27T08:02:45.668Z,101799.03
2023-03-27T08:12:52.261Z,101799.66
2023-03-27T08:23:00.751Z,101820.84
2023-03-27T08:33:09.879Z,101832.41
2023-03-27T08:43:18.768Z,101838.59
2023-03-27T08:53:34.152Z,101850.47
2023-03-27T09:03:47.257Z,101875.53
2023-03-27T09:13:53.267Z,101873.09
2023-03-27T09:24:03.209Z,101907.53
2023-03-27T09:34:26.569Z,101947.88
2023-03-27T09:44:35.349Z,101906.53
2023-03-27T09:54:53.965Z,101917.88
2023-03-27T10:05:22.655Z,101929.44
2023-03-27T10:15:41.420Z,101948.19
2023-03-27T10:25:52.003Z,101939.44
2023-03-27T10:36:00.934Z,101941.53
2023-03-27T10:46:12.501Z,101931.78
2023-03-27T10:56:27.484Z,101968.09
2023-03-27T11:06:35.217Z,102021.31
2023-03-27T11:16:44.354Z,101991.34
2023-03-27T11:27:09.989Z,101985.97
2023-03-27T11:37:22.180Z,101988.56
2023-03-27T11:47:40.990Z,101992.03
2023-03-27T11:58:04.388Z,101990.81
2023-03-27T12:08:28.508Z,102010.75
2023-03-27T12:18:51.190Z,102011.72
2023-03-27T12:29:23.708Z,102058.56
2023-03-27T12:39:47.016Z,102039.16
2023-03-27T12:49:59.005Z,102029.09
2023-03-27T13:00:22.137Z,102030.00
2023-03-27T13:10:40.407Z,102030.06
2023-03-27T13:20:48.953Z,102029.66
2023-03-27T13:30:53.820Z,102045.97
2023-03-27T13:42:10.860Z,102051.50
2023-03-27T13:52:45.592Z,102054.94
2023-03-27T14:03:24.466Z,102062.44
2023-03-27T14:13:51.144Z,102050.81
2023-03-27T14:24:01.083Z,102068.25
2023-03-27T14:34:22.458Z,102075.22
2023-03-27T14:44:28.658Z,102081.06
2023-03-27T14:54:44.636Z,102086.88
2023-03-27T15:05:11.414Z,102117.53
2023-03-27T15:15:34.564Z,102129.88
2023-03-27T15:25:42.848Z,102135.38
2023-03-27T15:35:52.703Z,102149.34
2023-03-27T15:46:02.212Z,102142.81
2023-03-27T15:56:16.001Z,102149.78
2023-03-27T16:06:32.721Z,102150.34
2023-03-27T16:16:37.845Z,102164.34
2023-03-27T16:26:40.908Z,102174.00
2023-03-27T16:36:45.322Z,102173.06
2023-03-27T16:46:48.346Z,102175.31
2023-03-27T16:56:53.201Z,102186.28
2023-03-27T17:06:56.489Z,102199.53
2023-03-27T17:17:01.388Z,102202.72
2023-03-27T17:27:04.567Z,102213.97
2023-03-27T17:37:14.576Z,102223.00
2023-03-27T17:47:17.961Z,102226.16
2023-03-27T17:57:29.591Z,102244.38
2023-03-27T18:07:32.734Z,102253.19
2023-03-27T18:17:37.165Z,102279.00
2023-03-27T18:27:42.011Z,102279.81
2023-03-27T18:37:47.292Z,102293.34
2023-03-27T18:47:50.339Z,102296.66
2023-03-27T18:57:54.891Z,102305.72
2023-03-27T19:07:59.430Z,102311.53
2023-03-27T19:18:04.074Z,102309.53
2023-03-27T19:28:30.096Z,102311.81
2023-03-27T19:38:37.337Z,102302.78
2023-03-27T19:48:40.490Z,102304.78
2023-03-27T19:58:52.280Z,102310.25
2023-03-27T20:08:55.570Z,102320.63
2023-03-27T20:19:05.876Z,102319.84
2023-03-27T20:29:11.157Z,102317.91
2023-03-27T20:39:17.020Z,102329.06
2023-03-27T20:59:32.337Z,102341.16
2023-03-27T21:09:35.395Z,102339.03
2023-03-27T21:19:39.763Z,102345.44
2023-03-27T21:29:42.860Z,102347.91
2023-03-27T21:39:47.288Z,102354.16
2023-03-27T21:49:50.402Z,102352.69
2023-03-27T21:59:54.769Z,102345.66
2023-03-27T22:09:57.827Z,102346.28
2023-03-27T22:20:02.180Z,102366.25
2023-03-27T22:30:06.023Z,102376.72
2023-03-27T22:40:12.081Z,102377.47
2023-03-27T22:50:15.843Z,102377.63
2023-03-27T23:00:21.275Z,102385.00
2023-03-27T23:10:24.289Z,102383.78
2023-03-27T23:20:28.720Z,102378.50
2023-03-27T23:30:31.677Z,102391.16
2023-03-27T23:40:36.172Z,102399.56
2023-03-27T23:50:39.186Z,102396.47
